createdAt,value
2022-12-27T00:00:33.407Z,6.43
2022-12-27T00:01:33.412Z,8.00
2022-12-27T00:02:33.453Z,4.01
2022-12-27T00:03:33.386Z,4.01
2022-12-27T00:04:33.364Z,4.50
2022-12-27T00:05:33.432Z,6.33
2022-12-27T00:06:33.505Z,5.57
2022-12-27T00:07:33.526Z,3.71
2022-12-27T00:08:33.522Z,4.01
2022-12-27T00:09:33.514Z,2.69
2022-12-27T00:10:33.496Z,6.05
2022-12-27T00:11:33.495Z,4.99
2022-12-27T00:12:33.598Z,5.76
2022-12-27T00:13:33.619Z,3.10
2022-12-27T00:14:33.595Z,4.70
2022-12-27T00:15:33.676Z,6.71
2022-12-27T00:16:34.088Z,5.09
2022-12-27T00:17:33.718Z,5.57
2022-12-27T00:18:33.739Z,4.99
2022-12-27T00:19:33.753Z,3.81
2022-12-27T00:20:33.739Z,3.61
2022-12-27T00:21:33.830Z,3.51
2022-12-27T00:22:33.740Z,3.71
2022-12-27T00:23:33.720Z,2.59
2022-12-27T00:24:33.728Z,5.38
2022-12-27T00:25:33.768Z,3.71
2022-12-27T00:26:33.764Z,5.48
2022-12-27T00:27:33.775Z,4.40
2022-12-27T00:28:33.763Z,4.30
2022-12-27T00:29:33.741Z,2.48
2022-12-27T00:30:33.740Z,6.52
2022-12-27T00:31:33.809Z,6.99
2022-12-27T00:32:33.716Z,4.70
2022-12-27T00:33:33.724Z,7.90
2022-12-27T00:34:33.715Z,4.80
2022-12-27T00:35:33.723Z,5.19
2022-12-27T00:36:33.712Z,6.61
2022-12-27T00:37:33.702Z,4.99
2022-12-27T00:38:33.770Z,6.52
2022-12-27T00:39:33.853Z,6.24
2022-12-27T00:40:33.862Z,9.51
2022-12-27T00:41:33.842Z,7.08
2022-12-27T00:42:33.841Z,6.52
2022-12-27T00:43:33.924Z,6.71
2022-12-27T00:44:33.920Z,6.80
2022-12-27T00:45:33.986Z,7.72
2022-12-27T00:46:34.047Z,8.62
2022-12-27T00:47:34.044Z,6.14
2022-12-27T00:48:34.027Z,6.61
2022-12-27T00:49:34.084Z,5.76
2022-12-27T00:50:34.083Z,6.89
2022-12-27T00:51:34.093Z,7.63
2022-12-27T00:52:34.067Z,6.89
2022-12-27T00:53:34.144Z,7.81
2022-12-27T00:54:34.134Z,5.38
2022-12-27T00:55:34.195Z,6.89
2022-12-27T00:56:34.312Z,7.17
2022-12-27T00:57:34.295Z,6.99
2022-12-27T00:58:39.881Z,8.45
2022-12-27T00:59:34.385Z,5.09
2022-12-27T01:00:34.456Z,5.95
2022-12-27T01:01:34.749Z,6.33
2022-12-27T01:02:34.446Z,7.90
2022-12-27T01:03:34.492Z,4.99
2022-12-27T01:04:34.509Z,4.40
2022-12-27T01:05:34.507Z,4.89
2022-12-27T01:06:34.489Z,5.48
2022-12-27T01:07:34.479Z,5.09
2022-12-27T01:08:34.491Z,5.09
2022-12-27T01:09:34.569Z,6.14
2022-12-27T01:10:34.551Z,5.38
2022-12-27T01:11:34.653Z,5.19
2022-12-27T01:12:34.638Z,7.17
2022-12-27T01:13:34.616Z,6.24
2022-12-27T01:14:34.698Z,5.38
2022-12-27T01:15:34.723Z,6.99
2022-12-27T01:16:34.787Z,8.27
2022-12-27T01:17:34.720Z,6.43
2022-12-27T01:18:34.710Z,6.24
2022-12-27T01:19:34.771Z,7.81
2022-12-27T01:20:34.851Z,4.89
2022-12-27T01:21:34.866Z,4.70
2022-12-27T01:22:34.851Z,6.33
2022-12-27T01:23:34.950Z,4.70
2022-12-27T01:24:34.939Z,6.52
2022-12-27T01:25:34.948Z,8.18
2022-12-27T01:26:34.995Z,7.45
2022-12-27T01:27:35.014Z,6.24
2022-12-27T01:28:35.027Z,3.40
2022-12-27T01:29:35.047Z,8.00
2022-12-27T01:30:35.040Z,5.95
2022-12-27T01:31:35.122Z,5.09
2022-12-27T01:32:35.083Z,8.00
2022-12-27T01:33:35.081Z,4.89
2022-12-27T01:34:35.153Z,4.70
2022-12-27T01:35:35.222Z,6.89
2022-12-27T01:36:35.287Z,5.95
2022-12-27T01:37:35.372Z,9.07
2022-12-27T01:38:35.363Z,8.09
2022-12-27T01:39:35.367Z,5.67
2022-12-27T01:40:35.367Z,5.09
2022-12-27T01:41:35.384Z,5.76
2022-12-27T01:42:35.369Z,6.24
2022-12-27T01:43:35.377Z,8.53
2022-12-27T01:44:35.359Z,7.54
2022-12-27T01:45:35.528Z,4.40
2022-12-27T01:46:35.483Z,5.67
2022-12-27T01:47:35.457Z,5.38
2022-12-27T01:48:35.538Z,5.19
2022-12-27T01:49:35.565Z,4.89
2022-12-27T01:50:35.549Z,4.50
2022-12-27T01:51:35.606Z,7.08
2022-12-27T01:52:35.685Z,6.52
2022-12-27T01:53:35.671Z,5.86
2022-12-27T01:54:35.757Z,5.19
2022-12-27T01:55:35.740Z,6.33
2022-12-27T01:56:35.797Z,5.09
2022-12-27T01:57:35.866Z,5.38
2022-12-27T01:58:35.957Z,6.43
2022-12-27T01:59:35.927Z,5.76
2022-12-27T02:00:36.008Z,6.61
2022-12-27T02:01:36.134Z,4.99
2022-12-27T02:02:36.152Z,8.27
2022-12-27T02:03:36.083Z,4.80
2022-12-27T02:04:36.076Z,5.76
2022-12-27T02:05:36.076Z,6.43
2022-12-27T02:06:36.063Z,6.43
2022-12-27T02:07:36.131Z,7.54
2022-12-27T02:08:36.203Z,4.89
2022-12-27T02:09:36.269Z,5.95
2022-12-27T02:10:36.265Z,6.52
2022-12-27T02:11:36.349Z,4.70
2022-12-27T02:12:36.342Z,4.99
2022-12-27T02:13:36.340Z,8.18
2022-12-27T02:14:36.319Z,3.00
2022-12-27T02:15:36.389Z,4.80
2022-12-27T02:16:36.507Z,4.89
2022-12-27T02:17:36.512Z,5.09
2022-12-27T02:20:02.515Z,3.51
2022-12-27T02:21:02.591Z,5.76
2022-12-27T02:22:02.571Z,8.80
2022-12-27T02:23:02.553Z,6.14
2022-12-27T02:24:02.623Z,6.43
2022-12-27T02:25:02.627Z,7.45
2022-12-27T02:26:02.643Z,9.24
2022-12-27T02:27:02.623Z,5.48
2022-12-27T02:28:02.691Z,4.70
2022-12-27T02:29:02.760Z,5.76
2022-12-27T02:30:02.846Z,5.38
2022-12-27T02:31:02.858Z,4.99
2022-12-27T02:32:02.863Z,7.81
2022-12-27T02:33:02.940Z,8.27
2022-12-27T02:34:02.995Z,6.89
2022-12-27T02:35:03.063Z,5.28
2022-12-27T02:36:03.055Z,5.67
2022-12-27T02:37:03.051Z,6.43
2022-12-27T02:38:03.115Z,5.38
2022-12-27T02:39:03.189Z,4.01
2022-12-27T02:40:03.165Z,7.63
2022-12-27T02:41:03.238Z,6.05
2022-12-27T02:42:03.258Z,6.61
2022-12-27T02:43:03.236Z,4.80
2022-12-27T02:44:03.297Z,4.80
2022-12-27T02:45:03.374Z,5.19
2022-12-27T02:46:03.376Z,5.19
2022-12-27T02:47:03.392Z,5.38
2022-12-27T02:48:03.370Z,4.99
2022-12-27T02:49:03.441Z,5.19
2022-12-27T02:50:03.510Z,5.28
2022-12-27T02:51:03.502Z,6.33
2022-12-27T02:52:03.559Z,5.57
2022-12-27T02:53:03.628Z,6.80
2022-12-27T02:54:03.693Z,6.80
2022-12-27T02:55:03.767Z,7.08
2022-12-27T02:56:03.748Z,5.95
2022-12-27T02:57:03.828Z,5.57
2022-12-27T02:58:03.828Z,5.76
2022-12-27T02:59:03.808Z,5.19
2022-12-27T03:00:03.880Z,4.70
2022-12-27T03:01:03.971Z,6.99
2022-12-27T03:02:04.151Z,6.89
2022-12-27T03:03:04.127Z,4.40
2022-12-27T03:04:04.020Z,6.05
2022-12-27T03:05:04.080Z,6.80
2022-12-27T03:06:04.150Z,5.28
2022-12-27T03:07:04.227Z,5.57
2022-12-27T03:08:04.229Z,5.95
2022-12-27T03:09:04.214Z,6.14
2022-12-27T03:10:04.264Z,5.76
2022-12-27T03:11:04.239Z,6.99
2022-12-27T03:12:04.299Z,5.19
2022-12-27T03:13:04.410Z,6.33
2022-12-27T03:14:04.367Z,5.48
2022-12-27T03:15:04.351Z,6.71
2022-12-27T03:16:04.450Z,6.99
2022-12-27T03:17:04.411Z,9.07
2022-12-27T03:18:04.484Z,7.17
2022-12-27T03:19:04.463Z,5.76
2022-12-27T03:20:04.550Z,6.14
2022-12-27T03:21:04.536Z,6.43
2022-12-27T03:22:04.599Z,5.76
2022-12-27T03:23:04.662Z,7.08
2022-12-27T03:24:04.724Z,4.80
2022-12-27T03:25:04.845Z,6.89
2022-12-27T03:26:04.841Z,6.52
2022-12-27T03:27:04.893Z,6.14
2022-12-27T03:28:04.956Z,6.05
2022-12-27T03:29:05.024Z,5.28
2022-12-27T03:30:05.115Z,6.80
2022-12-27T03:31:05.121Z,5.86
2022-12-27T03:32:05.180Z,5.76
2022-12-27T03:33:05.219Z,5.28
2022-12-27T03:34:05.226Z,6.33
2022-12-27T03:35:05.262Z,5.28
2022-12-27T03:36:05.336Z,6.14
2022-12-27T03:37:05.335Z,6.89
2022-12-27T03:38:05.567Z,5.28
2022-12-27T03:39:05.357Z,6.52
2022-12-27T03:40:05.405Z,8.36
2022-12-27T03:41:05.486Z,8.80
2022-12-27T03:42:05.547Z,5.67
2022-12-27T03:43:05.543Z,7.63
2022-12-27T03:44:05.519Z,6.05
2022-12-27T03:45:05.588Z,5.67
2022-12-27T03:46:05.716Z,5.48
2022-12-27T03:47:05.718Z,5.86
2022-12-27T03:48:05.787Z,8.09
2022-12-27T03:49:05.847Z,8.98
2022-12-27T03:50:05.917Z,7.63
2022-12-27T03:51:06.012Z,5.86
2022-12-27T03:52:05.999Z,5.57
2022-12-27T03:53:06.065Z,9.59
2022-12-27T03:54:06.134Z,6.89
2022-12-27T03:55:06.190Z,6.24
2022-12-27T03:56:06.254Z,7.17
2022-12-27T03:57:06.259Z,7.26
2022-12-27T03:58:06.243Z,8.18
2022-12-27T03:59:06.308Z,7.45
2022-12-27T04:00:06.366Z,5.67
2022-12-27T04:01:06.465Z,8.62
2022-12-27T04:02:06.470Z,5.95
2022-12-27T04:03:06.447Z,6.61
2022-12-27T04:04:06.462Z,6.71
2022-12-27T04:05:06.432Z,6.43
2022-12-27T04:06:06.494Z,4.60
2022-12-27T04:07:06.592Z,4.11
2022-12-27T04:08:06.552Z,8.62
2022-12-27T04:09:06.636Z,5.86
2022-12-27T04:10:06.615Z,7.45
2022-12-27T04:11:06.672Z,5.95
2022-12-27T04:12:06.736Z,5.19
2022-12-27T04:13:06.791Z,6.52
2022-12-27T04:14:06.793Z,4.50
2022-12-27T04:15:06.872Z,5.09
2022-12-27T04:16:06.890Z,6.80
2022-12-27T04:17:06.896Z,6.89
2022-12-27T04:18:06.957Z,5.48
2022-12-27T04:19:07.027Z,5.76
2022-12-27T04:20:06.996Z,3.81
2022-12-27T04:21:07.064Z,7.63
2022-12-27T04:22:07.142Z,4.80
2022-12-27T04:23:07.126Z,5.38
2022-12-27T04:24:07.190Z,8.45
2022-12-27T04:25:07.282Z,5.95
2022-12-27T04:26:07.271Z,9.68
2022-12-27T04:27:07.258Z,8.09
2022-12-27T04:28:07.320Z,5.38
2022-12-27T04:29:07.385Z,7.81
2022-12-27T04:30:07.454Z,6.99
2022-12-27T04:31:07.470Z,8.27
2022-12-27T04:32:07.471Z,5.19
2022-12-27T04:33:07.437Z,4.50
2022-12-27T04:34:07.506Z,8.36
2022-12-27T04:35:07.489Z,5.19
2022-12-27T04:36:07.487Z,9.59
2022-12-27T04:37:07.529Z,7.63
2022-12-27T04:38:07.507Z,8.00
2022-12-27T04:39:07.495Z,4.21
2022-12-27T04:40:07.588Z,7.36
2022-12-27T04:41:07.595Z,6.24
2022-12-27T04:42:07.659Z,10.71
2022-12-27T04:43:07.659Z,6.14
2022-12-27T04:44:07.658Z,7.45
2022-12-27T04:45:13.239Z,9.07
2022-12-27T04:46:07.713Z,5.38
2022-12-27T04:47:07.697Z,9.42
2022-12-27T04:48:07.761Z,6.24
2022-12-27T04:49:07.828Z,6.61
2022-12-27T04:50:07.893Z,4.80
2022-12-27T04:51:07.953Z,6.24
2022-12-27T04:52:08.016Z,7.26
2022-12-27T04:53:08.077Z,4.70
2022-12-27T04:54:08.155Z,6.43
2022-12-27T04:55:08.143Z,5.09
2022-12-27T04:56:08.133Z,9.59
2022-12-27T04:57:08.140Z,8.45
2022-12-27T04:58:08.120Z,6.24
2022-12-27T04:59:08.193Z,6.71
2022-12-27T05:00:08.171Z,8.71
2022-12-27T05:01:13.993Z,7.36
2022-12-27T05:02:08.292Z,4.80
2022-12-27T05:03:08.425Z,6.80
2022-12-27T05:04:08.332Z,8.71
2022-12-27T05:05:08.381Z,7.90
2022-12-27T05:06:08.380Z,12.37
2022-12-27T05:07:08.382Z,8.00
2022-12-27T05:08:08.365Z,5.67
2022-12-27T05:09:08.433Z,4.70
2022-12-27T05:10:08.519Z,7.72
2022-12-27T05:11:08.504Z,6.43
2022-12-27T05:12:08.591Z,6.80
2022-12-27T05:13:08.584Z,7.90
2022-12-27T05:14:08.561Z,6.80
2022-12-27T05:15:08.611Z,8.80
2022-12-27T05:16:08.642Z,10.37
2022-12-27T05:17:08.648Z,6.05
2022-12-27T05:18:08.647Z,5.48
2022-12-27T05:19:08.631Z,8.80
2022-12-27T05:20:08.637Z,7.26
2022-12-27T05:21:08.623Z,7.26
2022-12-27T05:22:08.622Z,8.62
2022-12-27T05:23:08.618Z,6.52
2022-12-27T05:24:08.596Z,7.45
2022-12-27T05:25:08.674Z,5.86
2022-12-27T05:26:08.744Z,7.08
2022-12-27T05:27:08.827Z,6.05
2022-12-27T05:28:08.800Z,7.90
2022-12-27T05:29:08.864Z,6.71
2022-12-27T05:30:08.960Z,9.24
2022-12-27T05:31:08.986Z,6.33
2022-12-27T05:32:13.021Z,5.19
2022-12-27T05:33:09.002Z,6.89
2022-12-27T05:34:09.069Z,7.90
2022-12-27T05:35:09.107Z,6.80
2022-12-27T05:36:09.115Z,5.28
2022-12-27T05:37:09.095Z,6.05
2022-12-27T05:38:09.095Z,7.45
2022-12-27T05:39:09.147Z,5.28
2022-12-27T05:40:09.218Z,7.63
2022-12-27T05:41:09.287Z,6.24
2022-12-27T05:42:09.279Z,6.43
2022-12-27T05:43:09.261Z,7.72
2022-12-27T05:44:09.263Z,9.51
2022-12-27T05:45:09.321Z,7.63
2022-12-27T05:46:09.411Z,5.38
2022-12-27T05:47:09.398Z,8.36
2022-12-27T05:48:09.409Z,7.08
2022-12-27T05:49:09.477Z,5.57
2022-12-27T05:50:09.467Z,7.45
2022-12-27T05:51:09.502Z,8.98
2022-12-27T05:52:09.479Z,6.14
2022-12-27T05:53:09.502Z,7.72
2022-12-27T05:54:09.472Z,5.48
2022-12-27T05:55:09.568Z,8.53
2022-12-27T05:56:09.551Z,6.80
2022-12-27T05:57:09.655Z,8.18
2022-12-27T05:58:09.641Z,5.28
2022-12-27T05:59:09.633Z,6.05
2022-12-27T06:00:09.691Z,6.43
2022-12-27T06:01:09.764Z,5.67
2022-12-27T06:02:09.943Z,6.43
2022-12-27T06:03:09.973Z,9.68
2022-12-27T06:04:09.871Z,7.90
2022-12-27T06:05:09.902Z,6.61
2022-12-27T06:06:09.887Z,8.80
2022-12-27T06:07:09.944Z,4.40
2022-12-27T06:08:10.000Z,6.43
2022-12-27T06:09:10.062Z,8.98
2022-12-27T06:10:10.157Z,6.99
2022-12-27T06:11:10.134Z,9.07
2022-12-27T06:12:10.124Z,6.99
2022-12-27T06:13:10.175Z,5.38
2022-12-27T06:14:10.246Z,7.36
2022-12-27T06:15:10.308Z,6.80
2022-12-27T06:16:10.404Z,7.45
2022-12-27T06:17:10.396Z,7.17
2022-12-27T06:18:10.454Z,7.36
2022-12-27T06:19:10.516Z,4.21
2022-12-27T06:20:10.586Z,5.95
2022-12-27T06:21:10.663Z,8.53
2022-12-27T06:22:10.737Z,8.45
2022-12-27T06:23:10.716Z,7.63
2022-12-27T06:24:10.783Z,8.71
2022-12-27T06:25:14.116Z,6.61
2022-12-27T06:26:10.829Z,6.61
2022-12-27T06:27:10.905Z,10.03
2022-12-27T06:28:10.914Z,10.45
2022-12-27T06:29:10.924Z,5.09
2022-12-27T06:30:10.978Z,7.08
2022-12-27T06:31:11.198Z,6.71
2022-12-27T06:32:11.094Z,6.05
2022-12-27T06:33:11.164Z,8.45
2022-12-27T06:34:11.158Z,4.99
2022-12-27T06:35:11.155Z,8.62
2022-12-27T06:36:11.156Z,11.13
2022-12-27T06:37:11.144Z,5.19
2022-12-27T06:38:11.200Z,8.53
2022-12-27T06:39:11.275Z,7.26
2022-12-27T06:40:11.343Z,7.54
2022-12-27T06:41:11.389Z,5.86
2022-12-27T06:42:11.464Z,6.71
2022-12-27T06:43:11.449Z,5.09
2022-12-27T06:44:11.510Z,5.48
2022-12-27T06:45:11.572Z,7.45
2022-12-27T06:46:17.165Z,9.51
2022-12-27T06:47:11.666Z,6.99
2022-12-27T06:48:11.652Z,5.86
2022-12-27T06:49:11.711Z,6.71
2022-12-27T06:50:11.702Z,4.50
2022-12-27T06:51:11.762Z,7.08
2022-12-27T06:52:11.843Z,8.62
2022-12-27T06:53:11.822Z,6.52
2022-12-27T06:54:11.897Z,5.28
2022-12-27T06:55:11.953Z,6.80
2022-12-27T06:56:12.015Z,6.05
2022-12-27T06:57:12.084Z,8.00
2022-12-27T06:58:12.089Z,5.67
2022-12-27T06:59:12.054Z,4.50
2022-12-27T07:00:12.134Z,10.03
2022-12-27T07:01:12.240Z,5.95
2022-12-27T07:02:12.302Z,10.54
2022-12-27T07:03:12.272Z,9.24
2022-12-27T07:04:12.202Z,7.81
2022-12-27T07:05:12.203Z,9.33
2022-12-27T07:06:12.188Z,7.36
2022-12-27T07:07:15.889Z,4.40
2022-12-27T07:08:12.268Z,6.89
2022-12-27T07:09:12.343Z,6.52
2022-12-27T07:10:12.339Z,5.76
2022-12-27T07:11:12.315Z,6.24
2022-12-27T07:12:12.396Z,6.80
2022-12-27T07:13:12.448Z,7.45
2022-12-27T07:14:12.506Z,5.67
2022-12-27T07:15:12.587Z,7.54
2022-12-27T07:16:12.737Z,7.63
2022-12-27T07:17:12.639Z,4.99
2022-12-27T07:18:12.655Z,6.14
2022-12-27T07:19:12.669Z,6.99
2022-12-27T07:20:12.730Z,6.71
2022-12-27T07:21:12.739Z,9.07
2022-12-27T07:22:12.781Z,9.68
2022-12-27T07:23:15.809Z,6.05
2022-12-27T07:24:12.817Z,5.19
2022-12-27T07:25:12.823Z,4.11
2022-12-27T07:26:12.833Z,5.67
2022-12-27T07:27:12.848Z,7.08
2022-12-27T07:28:12.858Z,6.43
2022-12-27T07:29:12.889Z,6.14
2022-12-27T07:30:12.895Z,5.95
2022-12-27T07:31:12.906Z,8.80
2022-12-27T07:32:12.903Z,5.57
2022-12-27T07:33:12.931Z,7.08
2022-12-27T07:34:12.943Z,5.19
2022-12-27T07:35:12.947Z,6.89
2022-12-27T07:36:12.960Z,7.72
2022-12-27T07:37:13.020Z,6.33
2022-12-27T07:38:13.051Z,6.99
2022-12-27T07:39:13.081Z,8.09
2022-12-27T07:40:13.123Z,9.16
2022-12-27T07:41:13.171Z,7.54
2022-12-27T07:42:13.187Z,6.61
2022-12-27T07:43:13.222Z,7.08
2022-12-27T07:44:13.242Z,5.48
2022-12-27T07:45:13.243Z,6.89
2022-12-27T07:46:13.329Z,6.14
2022-12-27T07:47:13.295Z,6.52
2022-12-27T07:48:13.322Z,6.24
2022-12-27T07:49:17.561Z,6.80
2022-12-27T07:50:13.424Z,10.28
2022-12-27T07:51:13.405Z,6.33
2022-12-27T07:52:13.387Z,5.28
2022-12-27T07:53:13.375Z,9.42
2022-12-27T07:54:13.376Z,9.59
2022-12-27T07:55:13.379Z,6.52
2022-12-27T07:56:13.374Z,7.45
2022-12-27T07:57:13.368Z,7.26
2022-12-27T07:58:13.356Z,8.80
2022-12-27T07:59:13.370Z,10.03
2022-12-27T08:00:13.380Z,8.45
2022-12-27T08:01:13.558Z,7.63
2022-12-27T08:02:13.500Z,8.89
2022-12-27T08:03:13.445Z,5.57
2022-12-27T08:04:13.427Z,8.18
2022-12-27T08:05:13.453Z,6.99
2022-12-27T08:06:13.452Z,7.63
2022-12-27T08:07:13.475Z,4.99
2022-12-27T08:08:13.485Z,5.38
2022-12-27T08:09:13.487Z,6.99
2022-12-27T08:10:13.516Z,5.19
2022-12-27T08:11:13.528Z,7.90
2022-12-27T08:12:13.571Z,6.33
2022-12-27T08:13:13.589Z,5.48
2022-12-27T08:14:13.645Z,5.76
2022-12-27T08:15:13.690Z,6.05
2022-12-27T08:16:13.806Z,5.86
2022-12-27T08:17:13.773Z,4.60
2022-12-27T08:18:13.816Z,4.99
2022-12-27T08:19:13.816Z,6.24
2022-12-27T08:20:13.813Z,5.28
2022-12-27T08:21:13.810Z,6.99
2022-12-27T08:22:13.839Z,5.28
2022-12-27T08:23:13.880Z,6.14
2022-12-27T08:24:13.921Z,5.19
2022-12-27T08:25:13.961Z,5.95
2022-12-27T08:26:14.036Z,3.00
2022-12-27T08:27:14.071Z,7.26
2022-12-27T08:28:14.060Z,3.51
2022-12-27T08:29:14.092Z,4.40
2022-12-27T08:30:14.133Z,6.61
2022-12-27T08:31:14.214Z,6.71
2022-12-27T08:32:14.212Z,5.86
2022-12-27T08:33:14.221Z,5.48
2022-12-27T08:34:14.252Z,7.08
2022-12-27T08:35:51.507Z,7.72
2022-12-27T08:37:14.312Z,6.99
2022-12-27T08:38:14.393Z,6.99
2022-12-27T08:39:14.405Z,7.54
2022-12-27T08:40:14.424Z,4.89
2022-12-27T08:41:14.463Z,10.79
2022-12-27T08:42:14.500Z,8.89
2022-12-27T08:43:14.592Z,9.68
2022-12-27T08:44:14.564Z,8.53
2022-12-27T08:45:14.591Z,6.89
2022-12-27T08:46:14.620Z,9.07
2022-12-27T08:47:14.633Z,6.33
2022-12-27T08:48:14.692Z,6.61
2022-12-27T08:49:14.719Z,4.80
2022-12-27T08:50:14.745Z,5.19
2022-12-27T08:51:21.942Z,5.95
2022-12-27T08:52:14.787Z,6.61
2022-12-27T08:53:14.828Z,5.76
2022-12-27T08:54:14.831Z,5.86
2022-12-27T08:55:14.872Z,5.28
2022-12-27T08:56:14.938Z,7.72
2022-12-27T08:57:14.917Z,7.26
2022-12-27T08:58:16.521Z,6.14
2022-12-27T08:59:14.986Z,8.98
2022-12-27T09:00:14.967Z,6.43
2022-12-27T09:01:15.080Z,4.50
2022-12-27T09:02:15.095Z,6.33
2022-12-27T09:03:15.117Z,7.72
2022-12-27T09:04:15.132Z,7.45
2022-12-27T09:05:15.189Z,6.14
2022-12-27T09:06:15.213Z,6.24
2022-12-27T09:07:15.268Z,6.43
2022-12-27T09:08:15.339Z,5.57
2022-12-27T09:09:15.379Z,6.52
2022-12-27T09:10:15.452Z,5.67
2022-12-27T09:11:15.500Z,6.61
2022-12-27T09:12:15.586Z,5.38
2022-12-27T09:13:15.609Z,9.07
2022-12-27T09:14:15.642Z,9.59
2022-12-27T09:15:15.689Z,7.36
2022-12-27T09:16:15.791Z,7.90
2022-12-27T09:17:15.763Z,6.71
2022-12-27T09:18:15.821Z,5.19
2022-12-27T09:19:15.889Z,6.89
2022-12-27T09:20:15.932Z,8.09
2022-12-27T09:21:16.008Z,4.89
2022-12-27T09:22:16.022Z,5.86
2022-12-27T09:23:16.065Z,4.50
2022-12-27T09:24:16.068Z,4.89
2022-12-27T09:25:16.164Z,5.76
2022-12-27T09:26:16.149Z,6.05
2022-12-27T09:27:16.194Z,4.89
2022-12-27T09:28:16.250Z,7.17
2022-12-27T09:29:16.290Z,7.08
2022-12-27T09:30:16.265Z,7.45
2022-12-27T09:31:16.327Z,7.81
2022-12-27T09:32:16.304Z,10.03
2022-12-27T09:33:16.296Z,9.68
2022-12-27T09:34:16.334Z,8.98
2022-12-27T09:35:16.365Z,8.71
2022-12-27T09:36:16.461Z,8.36
2022-12-27T09:37:16.458Z,9.16
2022-12-27T09:38:16.496Z,9.59
2022-12-27T09:39:16.532Z,10.37
2022-12-27T09:40:16.601Z,7.63
2022-12-27T09:41:40.845Z,11.30
2022-12-27T09:43:22.380Z,8.89
2022-12-27T09:44:16.635Z,8.09
2022-12-27T09:45:16.638Z,8.00
2022-12-27T09:46:16.655Z,6.61
2022-12-27T09:47:16.698Z,8.27
2022-12-27T09:48:16.732Z,5.76
2022-12-27T09:49:16.751Z,7.81
2022-12-27T09:50:16.768Z,7.72
2022-12-27T09:51:16.837Z,6.43
2022-12-27T09:52:16.788Z,9.42
2022-12-27T09:53:16.790Z,9.77
2022-12-27T09:54:16.808Z,6.05
2022-12-27T09:55:16.904Z,7.36
2022-12-27T09:56:16.878Z,8.80
2022-12-27T09:57:20.729Z,7.17
2022-12-27T09:58:16.989Z,7.45
2022-12-27T09:59:17.011Z,8.89
2022-12-27T10:00:35.247Z,9.51
2022-12-27T10:01:17.220Z,6.71
2022-12-27T10:02:17.205Z,7.17
2022-12-27T10:03:17.144Z,9.51
2022-12-27T10:04:17.171Z,6.33
2022-12-27T10:05:21.589Z,5.28
2022-12-27T10:06:17.229Z,8.80
2022-12-27T10:07:17.273Z,9.77
2022-12-27T10:08:17.282Z,6.33
2022-12-27T10:09:17.367Z,7.26
2022-12-27T10:10:17.349Z,8.71
2022-12-27T10:11:17.423Z,7.90
2022-12-27T10:12:17.456Z,10.03
2022-12-27T10:13:17.540Z,8.18
2022-12-27T10:14:17.532Z,10.37
2022-12-27T10:15:17.560Z,8.27
2022-12-27T10:16:17.601Z,6.99
2022-12-27T10:17:17.637Z,8.98
2022-12-27T10:18:17.685Z,8.36
2022-12-27T10:19:17.753Z,5.67
2022-12-27T10:20:17.815Z,6.33
2022-12-27T10:21:17.785Z,7.26
2022-12-27T10:22:17.810Z,6.52
2022-12-27T10:23:17.855Z,5.57
2022-12-27T10:24:17.943Z,9.68
2022-12-27T10:25:17.925Z,5.95
2022-12-27T10:26:17.927Z,6.52
2022-12-27T10:27:17.988Z,6.43
2022-12-27T10:28:17.971Z,9.85
2022-12-27T10:29:18.015Z,6.43
2022-12-27T10:30:18.081Z,4.70
2022-12-27T10:31:18.093Z,10.45
2022-12-27T10:32:18.067Z,7.81
2022-12-27T10:33:18.187Z,8.62
2022-12-27T10:34:18.147Z,8.98
2022-12-27T10:35:18.206Z,9.24
2022-12-27T10:36:18.277Z,7.45
2022-12-27T10:37:18.338Z,7.36
2022-12-27T10:38:18.379Z,5.67
2022-12-27T10:39:18.428Z,6.24
2022-12-27T10:40:18.503Z,6.89
2022-12-27T10:41:18.469Z,6.52
2022-12-27T10:42:18.549Z,5.86
2022-12-27T10:43:18.625Z,5.09
2022-12-27T10:44:19.466Z,4.80
2022-12-27T10:45:18.645Z,5.19
2022-12-27T10:46:18.718Z,5.95
2022-12-27T10:47:18.700Z,6.24
2022-12-27T10:48:18.701Z,6.14
2022-12-27T10:49:20.929Z,7.63
2022-12-27T10:50:18.760Z,5.95
2022-12-27T10:51:18.810Z,5.57
2022-12-27T10:52:18.889Z,7.54
2022-12-27T10:53:18.872Z,7.81
2022-12-27T10:54:18.903Z,5.57
2022-12-27T10:55:18.913Z,7.26
2022-12-27T10:56:18.902Z,7.26
2022-12-27T10:57:18.996Z,6.61
2022-12-27T10:58:18.953Z,4.80
2022-12-27T10:59:18.950Z,6.43
2022-12-27T11:00:19.082Z,6.61
2022-12-27T11:01:19.175Z,7.26
2022-12-27T11:02:19.259Z,4.99
2022-12-27T11:03:19.083Z,8.98
2022-12-27T11:04:20.942Z,10.11
2022-12-27T11:05:19.208Z,4.80
2022-12-27T11:06:19.212Z,5.67
2022-12-27T11:07:19.293Z,2.48
2022-12-27T11:08:19.238Z,5.38
2022-12-27T11:09:19.245Z,6.71
2022-12-27T11:10:19.296Z,4.89
2022-12-27T11:11:19.291Z,4.80
2022-12-27T11:12:19.365Z,4.99
2022-12-27T11:13:19.375Z,9.77
2022-12-27T11:14:19.376Z,4.70
2022-12-27T11:15:19.377Z,6.89
2022-12-27T11:16:19.406Z,5.67
2022-12-27T11:17:19.416Z,7.17
2022-12-27T11:18:19.409Z,5.28
2022-12-27T11:19:19.409Z,4.80
2022-12-27T11:20:19.407Z,6.33
2022-12-27T11:21:27.260Z,5.38
2022-12-27T11:22:19.529Z,3.30
2022-12-27T11:23:19.518Z,7.90
2022-12-27T11:24:19.552Z,3.91
2022-12-27T11:25:19.553Z,3.81
2022-12-27T11:26:19.548Z,7.90
2022-12-27T11:27:19.611Z,4.89
2022-12-27T11:28:19.688Z,7.36
2022-12-27T11:29:19.702Z,4.89
2022-12-27T11:30:19.702Z,5.76
2022-12-27T11:31:19.869Z,3.81
2022-12-27T11:32:19.757Z,6.61
2022-12-27T11:33:24.721Z,0.80
2022-12-27T11:34:19.762Z,1.86
2022-12-27T11:35:19.824Z,2.07
2022-12-27T11:36:19.936Z,1.96
2022-12-27T11:37:19.901Z,4.70
2022-12-27T11:38:19.954Z,0.90
2022-12-27T11:39:19.972Z,1.86
2022-12-27T11:40:20.038Z,1.12
2022-12-27T11:41:26.125Z,4.60
2022-12-27T11:42:20.052Z,4.21
2022-12-27T11:43:20.293Z,1.12
2022-12-27T11:44:20.124Z,2.28
2022-12-27T11:45:20.177Z,1.22
2022-12-27T11:46:20.213Z,1.65
2022-12-27T11:47:20.316Z,2.90
2022-12-27T11:48:20.262Z,4.89
2022-12-27T11:49:20.287Z,4.70
2022-12-27T11:50:20.373Z,1.96
2022-12-27T11:51:20.305Z,1.75
2022-12-27T11:52:20.399Z,0.00
2022-12-27T11:53:20.387Z,1.33
2022-12-27T11:54:20.427Z,1.54
2022-12-27T11:55:20.440Z,1.33
2022-12-27T11:56:20.410Z,0.90
2022-12-27T11:57:20.414Z,0.00
2022-12-27T11:58:20.450Z,0.80
2022-12-27T11:59:20.405Z,5.09
2022-12-27T12:00:20.495Z,0.58
2022-12-27T12:01:20.465Z,3.20
2022-12-27T12:02:20.525Z,0.00
2022-12-27T12:03:20.537Z,0.00
2022-12-27T12:04:20.651Z,0.00
2022-12-27T12:05:20.515Z,3.30
2022-12-27T12:06:20.538Z,1.75
2022-12-27T12:07:20.519Z,4.70
2022-12-27T12:08:20.530Z,4.70
2022-12-27T12:09:20.732Z,2.17
2022-12-27T12:10:20.697Z,3.10
2022-12-27T12:11:20.689Z,1.54
2022-12-27T12:12:20.665Z,0.00
2022-12-27T12:13:20.747Z,2.90
2022-12-27T12:14:20.974Z,0.69
2022-12-27T12:15:20.847Z,1.12
2022-12-27T12:16:20.935Z,2.48
2022-12-27T12:17:20.932Z,3.71
2022-12-27T12:18:22.368Z,0.00
2022-12-27T12:19:21.019Z,0.00
2022-12-27T12:20:20.972Z,1.12
2022-12-27T12:21:21.060Z,1.65
2022-12-27T12:22:21.062Z,0.00
2022-12-27T12:23:21.183Z,1.54
2022-12-27T12:24:21.305Z,1.01
2022-12-27T12:25:21.348Z,3.10
2022-12-27T12:26:21.323Z,0.00
2022-12-27T12:27:21.306Z,0.00
2022-12-27T12:28:55.698Z,0.00
2022-12-27T12:29:21.483Z,0.47
2022-12-27T12:30:27.097Z,3.30
2022-12-27T12:31:21.456Z,0.47
2022-12-27T12:32:21.436Z,2.28
2022-12-27T12:33:21.552Z,0.00
2022-12-27T12:34:21.555Z,5.19
2022-12-27T12:35:21.543Z,0.00
2022-12-27T12:36:21.592Z,1.01
2022-12-27T12:37:21.668Z,5.48
2022-12-27T12:38:21.662Z,0.00
2022-12-27T12:39:21.707Z,0.00
2022-12-27T12:40:21.728Z,3.40
2022-12-27T12:41:21.771Z,0.69
2022-12-27T12:42:22.277Z,0.00
2022-12-27T12:43:21.848Z,0.00
2022-12-27T12:44:22.014Z,0.00
2022-12-27T12:45:21.978Z,0.00
2022-12-27T12:46:21.926Z,0.00
2022-12-27T12:47:21.979Z,2.28
2022-12-27T12:48:21.992Z,4.89
2022-12-27T12:49:22.357Z,1.44
2022-12-27T12:50:22.109Z,1.75
2022-12-27T12:51:22.139Z,0.58
2022-12-27T12:52:22.191Z,0.80
2022-12-27T12:53:22.197Z,1.33
2022-12-27T12:54:22.220Z,0.00
2022-12-27T12:55:22.398Z,3.40
2022-12-27T12:56:22.299Z,0.90
2022-12-27T12:57:22.298Z,1.22
2022-12-27T12:58:22.340Z,1.12
2022-12-27T12:59:22.371Z,3.71
2022-12-27T13:00:22.354Z,0.90
2022-12-27T13:01:22.494Z,0.69
2022-12-27T13:02:22.615Z,4.30
2022-12-27T13:03:22.625Z,2.38
2022-12-27T13:04:22.449Z,2.69
2022-12-27T13:05:22.508Z,0.00
2022-12-27T13:06:22.616Z,0.00
2022-12-27T13:07:22.675Z,0.00
2022-12-27T13:08:22.575Z,1.01
2022-12-27T13:09:22.578Z,0.58
2022-12-27T13:10:22.596Z,2.38
2022-12-27T13:11:22.657Z,0.00
2022-12-27T13:12:22.727Z,2.28
2022-12-27T13:13:23.035Z,3.51
2022-12-27T13:14:22.842Z,0.00
2022-12-27T13:15:22.858Z,0.00
2022-12-27T13:16:23.012Z,1.22
2022-12-27T13:17:22.888Z,2.59
2022-12-27T13:18:29.949Z,0.00
2022-12-27T13:19:23.087Z,0.00
2022-12-27T13:20:22.920Z,0.00
2022-12-27T13:21:22.995Z,0.00